createdAt,value
2018-02-01T00:00:06.177Z,2.97
2018-02-01T00:01:06.148Z,3.05
2018-02-01T00:02:06.283Z,2.97
2018-02-01T00:03:06.178Z,2.99
2018-02-01T00:04:06.143Z,3.02
2018-02-01T00:05:06.300Z,2.99
2018-02-01T00:06:06.161Z,2.90
2018-02-01T00:07:06.135Z,2.84
2018-02-01T00:08:06.159Z,2.89
2018-02-01T00:09:06.141Z,2.87
2018-02-01T00:10:06.170Z,2.89
2018-02-01T00:11:06.131Z,2.84
2018-02-01T00:12:06.132Z,2.89
2018-02-01T00:13:06.130Z,3.02
2018-02-01T00:14:06.130Z,2.95
2018-02-01T00:15:07.034Z,2.85
2018-02-01T00:16:06.121Z,2.87
2018-02-01T00:17:06.141Z,2.96
2018-02-01T00:18:06.119Z,2.92
2018-02-01T00:19:06.118Z,2.96
2018-02-01T00:20:06.118Z,2.90
2018-02-01T00:21:06.108Z,2.99
2018-02-01T00:22:06.115Z,2.89
2018-02-01T00:23:06.114Z,2.99
2018-02-01T00:24:06.103Z,2.81
2018-02-01T00:25:06.111Z,2.93
2018-02-01T00:26:06.119Z,2.93
2018-02-01T00:27:06.107Z,2.82
2018-02-01T00:28:06.102Z,2.84
2018-02-01T00:29:06.103Z,2.89
2018-02-01T00:30:06.097Z,2.90
2018-02-01T00:31:06.091Z,2.93
2018-02-01T00:32:06.089Z,2.92
2018-02-01T00:33:06.091Z,2.85
2018-02-01T00:34:06.096Z,2.92
2018-02-01T00:35:06.083Z,2.93
2018-02-01T00:36:06.078Z,2.92
2018-02-01T00:37:06.075Z,2.85
2018-02-01T00:38:06.110Z,2.85
2018-02-01T00:39:06.079Z,2.87
2018-02-01T00:40:06.069Z,2.92
2018-02-01T00:41:06.074Z,2.87
2018-02-01T00:42:06.072Z,2.84
2018-02-01T00:43:06.237Z,2.79
2018-02-01T00:44:06.081Z,2.81
2018-02-01T00:45:06.068Z,2.89
2018-02-01T00:46:06.076Z,2.81
2018-02-01T00:47:06.066Z,2.90
2018-02-01T00:48:06.054Z,2.93
2018-02-01T00:49:06.064Z,2.87
2018-02-01T00:50:06.079Z,2.92
2018-02-01T00:51:06.073Z,2.93
2018-02-01T00:52:06.107Z,2.90
2018-02-01T00:53:06.047Z,2.93
2018-02-01T00:54:06.050Z,2.99
2018-02-01T00:55:06.046Z,2.92
2018-02-01T00:56:06.034Z,2.95
2018-02-01T00:57:06.033Z,3.02
2018-02-01T00:58:06.034Z,3.03
2018-02-01T00:59:06.039Z,2.96
2018-02-01T01:00:06.036Z,2.97
2018-02-01T01:01:06.088Z,2.97
2018-02-01T01:02:06.209Z,2.99
2018-02-01T01:03:06.145Z,3.02
2018-02-01T01:04:06.039Z,2.99
2018-02-01T01:05:06.066Z,3.05
2018-02-01T01:06:06.017Z,2.99
2018-02-01T01:07:06.018Z,2.89
2018-02-01T01:08:06.015Z,2.87
2018-02-01T01:09:06.012Z,2.95
2018-02-01T01:10:06.006Z,2.92
2018-02-01T01:11:06.009Z,3.02
2018-02-01T01:12:06.006Z,3.00
2018-02-01T01:13:05.997Z,2.97
2018-02-01T01:14:06.009Z,2.99
2018-02-01T01:15:06.005Z,2.97
2018-02-01T01:16:06.007Z,2.99
2018-02-01T01:17:05.991Z,3.02
2018-02-01T01:18:06.004Z,2.89
2018-02-01T01:19:05.994Z,2.96
2018-02-01T01:20:05.992Z,2.92
2018-02-01T01:21:05.992Z,2.90
2018-02-01T01:22:05.989Z,2.85
2018-02-01T01:23:05.988Z,2.95
2018-02-01T01:24:05.984Z,2.85
2018-02-01T01:25:05.973Z,2.95
2018-02-01T01:26:05.981Z,2.87
2018-02-01T01:27:05.973Z,2.99
2018-02-01T01:28:05.989Z,2.92
2018-02-01T01:29:05.975Z,2.99
2018-02-01T01:30:05.976Z,3.00
2018-02-01T01:31:06.023Z,2.97
2018-02-01T01:32:05.965Z,3.00
2018-02-01T01:33:05.959Z,3.03
2018-02-01T01:34:05.971Z,3.05
2018-02-01T01:35:05.960Z,3.05
2018-02-01T01:36:05.955Z,3.02
2018-02-01T01:37:05.947Z,3.08
2018-02-01T01:38:05.949Z,2.99
2018-02-01T01:39:06.306Z,3.13
2018-02-01T01:40:05.941Z,2.99
2018-02-01T01:41:05.946Z,3.11
2018-02-01T01:42:05.945Z,3.10
2018-02-01T01:43:05.988Z,3.13
2018-02-01T01:44:05.947Z,3.10
2018-02-01T01:45:05.937Z,3.02
2018-02-01T01:46:05.935Z,3.06
2018-02-01T01:47:05.929Z,3.15
2018-02-01T01:48:05.931Z,3.14
2018-02-01T01:49:05.918Z,3.10
2018-02-01T01:50:05.932Z,2.95
2018-02-01T01:51:05.912Z,2.99
2018-02-01T01:52:05.924Z,3.08
2018-02-01T01:53:05.923Z,2.99
2018-02-01T01:54:06.744Z,2.97
2018-02-01T01:55:05.917Z,2.99
2018-02-01T01:56:06.745Z,3.00
2018-02-01T01:57:05.927Z,2.99
2018-02-01T01:58:05.908Z,2.96
2018-02-01T01:59:05.901Z,2.99
2018-02-01T02:00:05.902Z,2.99
2018-02-01T02:01:05.909Z,2.92
2018-02-01T02:02:05.902Z,2.99
2018-02-01T02:03:05.902Z,3.05
2018-02-01T02:04:05.895Z,2.96
2018-02-01T02:05:05.897Z,2.96
2018-02-01T02:06:05.899Z,2.97
2018-02-01T02:07:05.891Z,3.00
2018-02-01T02:08:05.890Z,2.97
2018-02-01T02:09:05.885Z,2.96
2018-02-01T02:10:05.883Z,2.99
2018-02-01T02:11:05.883Z,2.96
2018-02-01T02:12:05.996Z,3.02
2018-02-01T02:13:05.879Z,3.00
2018-02-01T02:14:05.880Z,2.96
2018-02-01T02:15:05.884Z,3.03
2018-02-01T02:16:05.894Z,3.08
2018-02-01T02:17:05.870Z,3.08
2018-02-01T02:18:05.863Z,3.13
2018-02-01T02:19:05.864Z,3.17
2018-02-01T02:20:05.854Z,3.02
2018-02-01T02:21:05.862Z,3.00
2018-02-01T02:22:05.883Z,2.97
2018-02-01T02:23:05.857Z,3.06
2018-02-01T02:24:05.860Z,2.99
2018-02-01T02:25:05.858Z,3.05
2018-02-01T02:26:05.849Z,2.99
2018-02-01T02:27:05.842Z,2.97
2018-02-01T02:28:06.748Z,2.97
2018-02-01T02:29:05.846Z,2.97
2018-02-01T02:30:05.842Z,2.97
2018-02-01T02:31:05.827Z,2.96
2018-02-01T02:32:05.833Z,2.99
2018-02-01T02:33:05.826Z,3.02
2018-02-01T02:34:05.821Z,3.02
2018-02-01T02:35:05.816Z,2.97
2018-02-01T02:36:05.832Z,2.96
2018-02-01T02:37:05.813Z,3.00
2018-02-01T02:38:05.831Z,2.97
2018-02-01T02:39:05.819Z,3.02
2018-02-01T02:40:05.810Z,2.95
2018-02-01T02:41:06.750Z,2.93
2018-02-01T02:42:05.804Z,2.85
2018-02-01T02:43:05.817Z,2.99
2018-02-01T02:44:05.810Z,3.02
2018-02-01T02:45:05.802Z,2.99
2018-02-01T02:46:05.801Z,2.85
2018-02-01T02:47:05.796Z,2.89
2018-02-01T02:48:05.792Z,2.93
2018-02-01T02:49:05.794Z,3.03
2018-02-01T02:50:05.798Z,2.93
2018-02-01T02:51:05.786Z,3.02
2018-02-01T02:52:05.797Z,3.03
2018-02-01T02:53:05.790Z,2.99
2018-02-01T02:54:05.787Z,2.95
2018-02-01T02:55:05.791Z,3.03
2018-02-01T02:56:05.781Z,2.99
2018-02-01T02:57:05.769Z,2.96
2018-02-01T02:58:05.783Z,3.00
2018-02-01T02:59:05.763Z,3.03
2018-02-01T03:00:05.792Z,2.99
2018-02-01T03:01:05.770Z,3.05
2018-02-01T03:02:05.816Z,3.02
2018-02-01T03:03:05.758Z,3.00
2018-02-01T03:04:05.763Z,2.99
2018-02-01T03:05:05.757Z,2.95
2018-02-01T03:06:05.758Z,2.85
2018-02-01T03:07:05.753Z,2.89
2018-02-01T03:08:05.754Z,3.02
2018-02-01T03:09:05.996Z,2.97
2018-02-01T03:10:05.744Z,2.93
2018-02-01T03:11:05.738Z,2.90
2018-02-01T03:12:05.738Z,2.93
2018-02-01T03:13:05.743Z,2.96
2018-02-01T03:14:05.738Z,2.89
2018-02-01T03:15:05.772Z,2.99
2018-02-01T03:16:05.733Z,2.92
2018-02-01T03:17:05.732Z,2.99
2018-02-01T03:18:05.734Z,2.92
2018-02-01T03:19:05.725Z,2.93
2018-02-01T03:20:05.721Z,2.87
2018-02-01T03:21:05.718Z,2.84
2018-02-01T03:22:05.709Z,2.82
2018-02-01T03:23:05.715Z,2.81
2018-02-01T03:24:05.713Z,2.90
2018-02-01T03:25:05.710Z,2.87
2018-02-01T03:26:05.709Z,2.89
2018-02-01T03:27:05.709Z,2.92
2018-02-01T03:28:05.798Z,2.92
2018-02-01T03:29:05.705Z,2.93
2018-02-01T03:30:05.700Z,2.92
2018-02-01T03:31:05.691Z,2.90
2018-02-01T03:32:05.702Z,2.82
2018-02-01T03:33:05.701Z,2.87
2018-02-01T03:34:05.680Z,2.89
2018-02-01T03:35:05.701Z,2.89
2018-02-01T03:36:05.697Z,2.85
2018-02-01T03:37:05.686Z,2.85
2018-02-01T03:38:05.678Z,2.82
2018-02-01T03:39:05.681Z,2.79
2018-02-01T03:40:05.683Z,2.78
2018-02-01T03:41:05.697Z,2.74
2018-02-01T03:42:05.671Z,2.78
2018-02-01T03:43:05.671Z,2.74
2018-02-01T03:44:05.685Z,2.72
2018-02-01T03:45:05.721Z,2.77
2018-02-01T03:46:05.728Z,2.69
2018-02-01T03:47:05.662Z,2.78
2018-02-01T03:48:05.666Z,2.79
2018-02-01T03:49:05.676Z,2.72
2018-02-01T03:50:05.646Z,2.72
2018-02-01T03:51:05.658Z,2.77
2018-02-01T03:52:05.638Z,2.74
2018-02-01T03:53:05.653Z,2.72
2018-02-01T03:54:05.647Z,2.72
2018-02-01T03:55:05.702Z,2.63
2018-02-01T03:56:05.638Z,2.74
2018-02-01T03:57:05.635Z,2.69
2018-02-01T03:58:05.635Z,2.77
2018-02-01T03:59:05.719Z,2.75
2018-02-01T04:00:05.621Z,2.71
2018-02-01T04:01:05.630Z,2.71
2018-02-01T04:02:05.626Z,2.74
2018-02-01T04:03:05.651Z,2.67
2018-02-01T04:04:05.625Z,2.69
2018-02-01T04:05:05.607Z,2.64
2018-02-01T04:06:05.608Z,2.67
2018-02-01T04:07:05.603Z,2.67
2018-02-01T04:08:05.608Z,2.66
2018-02-01T04:09:05.607Z,2.61
2018-02-01T04:10:05.597Z,2.66
2018-02-01T04:11:05.603Z,2.64
2018-02-01T04:12:05.661Z,2.66
2018-02-01T04:13:05.588Z,2.56
2018-02-01T04:14:05.600Z,2.66
2018-02-01T04:15:05.594Z,2.67
2018-02-01T04:16:05.587Z,2.66
2018-02-01T04:17:05.596Z,2.69
2018-02-01T04:18:05.582Z,2.61
2018-02-01T04:19:05.584Z,2.63
2018-02-01T04:20:05.587Z,2.67
2018-02-01T04:21:05.574Z,2.67
2018-02-01T04:22:05.574Z,2.71
2018-02-01T04:23:05.562Z,2.63
2018-02-01T04:24:05.574Z,2.63
2018-02-01T04:25:06.264Z,2.61
2018-02-01T04:26:05.568Z,2.72
2018-02-01T04:27:05.574Z,2.64
2018-02-01T04:28:05.570Z,2.63
2018-02-01T04:29:05.557Z,2.60
2018-02-01T04:30:05.553Z,2.63
2018-02-01T04:31:05.552Z,2.66
2018-02-01T04:32:05.566Z,2.71
2018-02-01T04:33:05.548Z,2.67
2018-02-01T04:34:05.548Z,2.72
2018-02-01T04:35:05.542Z,2.67
2018-02-01T04:36:05.542Z,2.71
2018-02-01T04:37:05.540Z,2.67
2018-02-01T04:38:05.530Z,2.64
2018-02-01T04:39:05.533Z,2.61
2018-02-01T04:40:05.533Z,2.61
2018-02-01T04:41:05.525Z,2.61
2018-02-01T04:42:05.520Z,2.60
2018-02-01T04:43:05.529Z,2.63
2018-02-01T04:44:05.522Z,2.56
2018-02-01T04:45:05.525Z,2.61
2018-02-01T04:46:05.603Z,2.60
2018-02-01T04:47:05.516Z,2.63
2018-02-01T04:48:05.556Z,2.63
2018-02-01T04:49:05.506Z,2.71
2018-02-01T04:50:05.502Z,2.64
2018-02-01T04:51:05.504Z,2.64
2018-02-01T04:52:05.508Z,2.66
2018-02-01T04:53:05.495Z,2.63
2018-02-01T04:54:05.491Z,2.61
2018-02-01T04:55:05.494Z,2.61
2018-02-01T04:56:05.497Z,2.64
2018-02-01T04:57:05.495Z,2.63
2018-02-01T04:58:05.489Z,2.59
2018-02-01T04:59:05.524Z,2.63
2018-02-01T05:00:05.481Z,2.64
2018-02-01T05:01:05.477Z,2.56
2018-02-01T05:02:05.477Z,2.59
2018-02-01T05:03:05.476Z,2.54
2018-02-01T05:04:05.469Z,2.54
2018-02-01T05:05:05.460Z,2.48
2018-02-01T05:06:05.464Z,2.57
2018-02-01T05:07:05.458Z,2.66
2018-02-01T05:08:05.463Z,2.64
2018-02-01T05:09:05.454Z,2.64
2018-02-01T05:10:05.455Z,2.54
2018-02-01T05:11:05.448Z,2.64
2018-02-01T05:12:05.450Z,2.64
2018-02-01T05:13:05.458Z,2.67
2018-02-01T05:14:05.443Z,2.67
2018-02-01T05:15:05.442Z,2.63
2018-02-01T05:16:05.448Z,2.61
2018-02-01T05:17:05.432Z,2.61
2018-02-01T05:18:05.425Z,2.66
2018-02-01T05:19:05.440Z,2.60
2018-02-01T05:20:05.436Z,2.60
2018-02-01T05:21:05.438Z,2.53
2018-02-01T05:22:05.427Z,2.59
2018-02-01T05:23:05.421Z,2.61
2018-02-01T05:24:05.427Z,2.57
2018-02-01T05:25:05.428Z,2.57
2018-02-01T05:26:05.415Z,2.49
2018-02-01T05:27:05.416Z,2.57
2018-02-01T05:28:05.408Z,2.61
2018-02-01T05:29:05.408Z,2.63
2018-02-01T05:30:06.276Z,2.54
2018-02-01T05:31:05.407Z,2.63
2018-02-01T05:32:05.407Z,2.49
2018-02-01T05:33:05.399Z,2.52
2018-02-01T05:34:05.395Z,2.56
2018-02-01T05:35:05.445Z,2.53
2018-02-01T05:36:05.392Z,2.57
2018-02-01T05:37:05.399Z,2.60
2018-02-01T05:38:05.383Z,2.53
2018-02-01T05:39:05.378Z,2.49
2018-02-01T05:40:05.373Z,2.59
2018-02-01T05:41:05.378Z,2.46
2018-02-01T05:42:05.385Z,2.48
2018-02-01T05:43:05.421Z,2.52
2018-02-01T05:44:05.374Z,2.49
2018-02-01T05:45:05.379Z,2.46
2018-02-01T05:46:05.381Z,2.53
2018-02-01T05:47:05.368Z,2.45
2018-02-01T05:48:05.365Z,2.46
2018-02-01T05:49:05.405Z,2.48
2018-02-01T05:50:05.394Z,2.49
2018-02-01T05:51:05.403Z,2.45
2018-02-01T05:52:05.368Z,2.46
2018-02-01T05:53:05.349Z,2.45
2018-02-01T05:54:05.334Z,2.53
2018-02-01T05:55:05.343Z,2.49
2018-02-01T05:56:05.433Z,2.63
2018-02-01T05:57:05.334Z,2.61
2018-02-01T05:58:05.350Z,2.53
2018-02-01T05:59:05.330Z,2.54
2018-02-01T06:00:05.326Z,2.54
2018-02-01T06:01:05.320Z,2.56
2018-02-01T06:02:05.317Z,2.56
2018-02-01T06:03:05.356Z,2.48
2018-02-01T06:04:05.322Z,2.46
2018-02-01T06:05:05.311Z,2.48
2018-02-01T06:06:05.314Z,2.46
2018-02-01T06:07:05.305Z,2.54
2018-02-01T06:08:05.308Z,2.49
2018-02-01T06:09:06.305Z,2.53
2018-02-01T06:10:05.305Z,2.48
2018-02-01T06:11:05.297Z,2.52
2018-02-01T06:12:05.299Z,2.46
2018-02-01T06:13:05.311Z,2.49
2018-02-01T06:14:05.293Z,2.43
2018-02-01T06:15:05.292Z,2.41
2018-02-01T06:16:05.283Z,2.38
2018-02-01T06:17:05.285Z,2.43
2018-02-01T06:18:05.282Z,2.39
2018-02-01T06:19:05.280Z,2.39
2018-02-01T06:20:05.276Z,2.38
2018-02-01T06:21:05.276Z,2.42
2018-02-01T06:22:05.279Z,2.53
2018-02-01T06:23:05.272Z,2.39
2018-02-01T06:24:05.271Z,2.36
2018-02-01T06:25:05.258Z,2.39
2018-02-01T06:26:05.251Z,2.41
2018-02-01T06:27:05.256Z,2.38
2018-02-01T06:28:05.255Z,2.43
2018-02-01T06:29:05.255Z,2.36
2018-02-01T06:30:05.314Z,2.45
2018-02-01T06:31:05.247Z,2.48
2018-02-01T06:32:05.244Z,2.52
2018-02-01T06:33:05.265Z,2.49
2018-02-01T06:34:05.240Z,2.45
2018-02-01T06:35:05.233Z,2.46
2018-02-01T06:36:05.240Z,2.46
2018-02-01T06:37:05.231Z,2.39
2018-02-01T06:38:05.245Z,2.39
2018-02-01T06:39:05.234Z,2.41
2018-02-01T06:40:05.240Z,2.42
2018-02-01T06:41:05.224Z,2.38
2018-02-01T06:42:05.218Z,2.42
2018-02-01T06:43:05.222Z,2.36
2018-02-01T06:44:05.216Z,2.39
2018-02-01T06:45:05.276Z,2.41
2018-02-01T06:46:05.206Z,2.41
2018-02-01T06:47:05.215Z,2.34
2018-02-01T06:48:05.205Z,2.42
2018-02-01T06:49:05.211Z,2.38
2018-02-01T06:50:05.204Z,2.35
2018-02-01T06:51:05.241Z,2.36
2018-02-01T06:52:05.190Z,2.39
2018-02-01T06:53:05.191Z,2.41
2018-02-01T06:54:05.185Z,2.36
2018-02-01T06:55:05.178Z,2.42
2018-02-01T06:56:05.273Z,2.43
2018-02-01T06:57:05.187Z,2.52
2018-02-01T06:58:05.171Z,2.42
2018-02-01T06:59:05.181Z,2.36
2018-02-01T07:00:05.176Z,2.38
2018-02-01T07:01:05.167Z,2.39
2018-02-01T07:02:05.167Z,2.41
2018-02-01T07:03:05.165Z,2.38
2018-02-01T07:04:05.168Z,2.39
2018-02-01T07:05:05.158Z,2.43
2018-02-01T07:06:05.175Z,2.49
2018-02-01T07:07:05.158Z,2.48
2018-02-01T07:08:05.158Z,2.45
2018-02-01T07:09:05.222Z,2.53
2018-02-01T07:10:05.147Z,2.46
2018-02-01T07:11:05.144Z,2.46
2018-02-01T07:12:05.146Z,2.43
2018-02-01T07:13:05.142Z,2.38
2018-02-01T07:14:05.789Z,2.43
2018-02-01T07:15:05.137Z,2.46
2018-02-01T07:16:05.134Z,2.42
2018-02-01T07:17:05.131Z,2.43
2018-02-01T07:18:05.128Z,2.48
2018-02-01T07:19:05.115Z,2.53
2018-02-01T07:20:05.126Z,2.59
2018-02-01T07:21:05.117Z,2.53
2018-02-01T07:22:05.113Z,2.52
2018-02-01T07:23:05.107Z,2.48
2018-02-01T07:24:05.118Z,2.54
2018-02-01T07:25:05.104Z,2.53
2018-02-01T07:26:05.100Z,2.54
2018-02-01T07:27:05.101Z,2.56
2018-02-01T07:28:05.098Z,2.63
2018-02-01T07:29:05.088Z,2.56
2018-02-01T07:30:05.796Z,2.64
2018-02-01T07:31:05.092Z,2.75
2018-02-01T07:32:05.088Z,2.75
2018-02-01T07:33:05.110Z,2.78
2018-02-01T07:34:05.102Z,2.87
2018-02-01T07:35:05.118Z,2.84
2018-02-01T07:36:05.089Z,2.93
2018-02-01T07:37:05.085Z,2.90
2018-02-01T07:38:05.076Z,2.93
2018-02-01T07:39:05.073Z,2.90
2018-02-01T07:40:05.072Z,2.97
2018-02-01T07:41:05.074Z,2.89
2018-02-01T07:42:05.063Z,2.93
2018-02-01T07:43:05.794Z,2.99
2018-02-01T07:44:05.060Z,3.00
2018-02-01T07:45:05.079Z,3.11
2018-02-01T07:46:05.051Z,3.08
2018-02-01T07:47:05.055Z,3.18
2018-02-01T07:48:05.053Z,3.21
2018-02-01T07:49:05.053Z,3.11
2018-02-01T07:50:05.048Z,3.28
2018-02-01T07:51:05.046Z,3.39
2018-02-01T07:52:05.056Z,3.36
2018-02-01T07:53:05.045Z,3.54
2018-02-01T07:54:05.035Z,3.76
2018-02-01T07:55:05.048Z,3.88
2018-02-01T07:56:05.116Z,4.06
2018-02-01T07:57:05.040Z,4.04
2018-02-01T07:58:05.024Z,4.06
2018-02-01T07:59:05.030Z,4.37
2018-02-01T08:00:05.023Z,4.32
2018-02-01T08:01:05.015Z,3.96
2018-02-01T08:02:05.017Z,3.73
2018-02-01T08:03:05.020Z,3.51
2018-02-01T08:04:05.035Z,3.55
2018-02-01T08:05:05.029Z,4.16
2018-02-01T08:06:05.014Z,4.20
2018-02-01T08:07:05.006Z,4.40
2018-02-01T08:08:05.000Z,4.26
2018-02-01T08:09:05.006Z,4.08
2018-02-01T08:10:05.006Z,3.88
2018-02-01T08:11:04.996Z,3.66
2018-02-01T08:12:05.009Z,3.65
2018-02-01T08:13:04.998Z,3.93
2018-02-01T08:14:05.791Z,4.59
2018-02-01T08:15:05.007Z,5.39
2018-02-01T08:16:04.988Z,5.85
2018-02-01T08:17:06.417Z,6.18
2018-02-01T08:18:05.009Z,6.54
2018-02-01T08:19:04.996Z,6.73
2018-02-01T08:20:04.995Z,6.79
2018-02-01T08:21:04.987Z,7.39
2018-02-01T08:22:04.994Z,7.39
2018-02-01T08:23:04.989Z,7.21
2018-02-01T08:24:04.985Z,7.58
2018-02-01T08:25:04.979Z,7.43
2018-02-01T08:26:04.973Z,8.23
2018-02-01T08:27:05.006Z,8.04
2018-02-01T08:28:04.994Z,7.90
2018-02-01T08:29:04.980Z,7.53
2018-02-01T08:30:05.121Z,7.45
2018-02-01T08:31:04.988Z,7.10
2018-02-01T08:32:05.006Z,7.02
2018-02-01T08:33:04.996Z,7.30
2018-02-01T08:34:05.109Z,7.25
2018-02-01T08:35:05.048Z,6.64
2018-02-01T08:36:04.993Z,6.46
2018-02-01T08:37:05.046Z,6.11
2018-02-01T08:38:04.980Z,6.06
2018-02-01T08:39:05.003Z,6.18
2018-02-01T08:40:04.985Z,5.93
2018-02-01T08:41:05.003Z,5.72
2018-02-01T08:42:04.979Z,6.00
2018-02-01T08:43:05.027Z,6.15
2018-02-01T08:44:04.978Z,6.51
2018-02-01T08:45:04.984Z,7.03
2018-02-01T08:46:04.979Z,7.37
2018-02-01T08:47:05.026Z,8.10
2018-02-01T08:48:05.818Z,8.22
2018-02-01T08:49:04.980Z,8.37
2018-02-01T08:50:05.032Z,8.30
2018-02-01T08:51:05.052Z,8.76
2018-02-01T08:52:04.993Z,9.15
2018-02-01T08:53:05.024Z,9.79
2018-02-01T08:54:05.190Z,10.17
2018-02-01T08:55:04.991Z,10.18
2018-02-01T08:56:05.001Z,10.29
2018-02-01T08:57:04.992Z,10.04
2018-02-01T08:58:04.997Z,10.11
2018-02-01T08:59:04.998Z,10.14
2018-02-01T09:00:04.996Z,10.02
2018-02-01T09:01:05.813Z,10.02
2018-02-01T09:02:05.007Z,9.76
2018-02-01T09:03:05.011Z,9.79
2018-02-01T09:04:05.813Z,9.97
2018-02-01T09:05:05.004Z,10.15
2018-02-01T09:06:05.848Z,10.30
2018-02-01T09:07:05.034Z,9.46
2018-02-01T09:08:05.051Z,9.89
2018-02-01T09:09:05.027Z,10.22
2018-02-01T09:10:05.812Z,10.38
2018-02-01T09:11:05.023Z,10.64
2018-02-01T09:12:05.023Z,10.66
2018-02-01T09:13:05.037Z,10.59
2018-02-01T09:14:05.816Z,10.97
2018-02-01T09:15:05.101Z,10.68
2018-02-01T09:16:05.037Z,10.71
2018-02-01T09:17:05.824Z,10.53
2018-02-01T09:18:05.049Z,10.25
2018-02-01T09:19:05.079Z,10.34
2018-02-01T09:20:05.095Z,10.02
2018-02-01T09:21:05.080Z,10.23
2018-02-01T09:22:05.062Z,10.60
2018-02-01T09:23:05.073Z,10.55
2018-02-01T09:24:05.068Z,10.66
2018-02-01T09:25:05.161Z,10.25
2018-02-01T09:26:05.080Z,10.15
2018-02-01T09:27:05.248Z,10.55
2018-02-01T09:28:05.128Z,10.70
2018-02-01T09:29:05.083Z,10.99
2018-02-01T09:30:05.090Z,11.06
2018-02-01T09:31:05.154Z,10.78
2018-02-01T09:32:05.097Z,10.30
2018-02-01T09:33:05.104Z,10.34
2018-02-01T09:34:05.096Z,10.92
2018-02-01T09:35:05.123Z,11.18
2018-02-01T09:36:05.104Z,11.14
2018-02-01T09:37:05.117Z,11.07
2018-02-01T09:38:05.140Z,11.17
2018-02-01T09:39:05.125Z,11.35
2018-02-01T09:40:05.137Z,11.69
2018-02-01T09:41:05.133Z,11.91
2018-02-01T09:42:05.129Z,11.33
2018-02-01T09:43:05.143Z,10.78
2018-02-01T09:44:05.147Z,11.39
2018-02-01T09:45:05.163Z,10.59
2018-02-01T09:46:05.195Z,10.45
2018-02-01T09:47:05.162Z,10.84
2018-02-01T09:48:05.376Z,10.73
2018-02-01T09:49:05.184Z,10.67
2018-02-01T09:50:05.833Z,10.53
2018-02-01T09:51:05.203Z,10.09
2018-02-01T09:52:05.193Z,10.02
2018-02-01T09:53:05.193Z,9.48
2018-02-01T09:54:05.199Z,10.18
2018-02-01T09:55:05.223Z,9.32
2018-02-01T09:56:05.236Z,8.28
2018-02-01T09:57:05.223Z,7.74
2018-02-01T09:58:05.838Z,7.67
2018-02-01T09:59:05.222Z,7.34
2018-02-01T10:00:05.214Z,6.99
2018-02-01T10:01:05.855Z,6.88
2018-02-01T10:02:05.230Z,6.70
2018-02-01T10:03:05.230Z,6.56
2018-02-01T10:04:05.232Z,6.37
2018-02-01T10:05:05.235Z,6.49
2018-02-01T10:06:05.245Z,6.44
2018-02-01T10:07:05.253Z,6.37
2018-02-01T10:08:05.254Z,6.99
2018-02-01T10:09:05.247Z,6.89
2018-02-01T10:10:05.245Z,6.99
2018-02-01T10:11:05.441Z,7.42
2018-02-01T10:12:05.273Z,7.37
2018-02-01T10:13:05.270Z,7.35
2018-02-01T10:14:05.266Z,7.35
2018-02-01T10:15:05.274Z,7.27
2018-02-01T10:16:05.277Z,7.48
2018-02-01T10:17:05.272Z,7.85
2018-02-01T10:18:05.271Z,7.83
2018-02-01T10:19:05.279Z,7.50
2018-02-01T10:20:05.372Z,7.32
2018-02-01T10:21:05.346Z,7.45
2018-02-01T10:22:05.294Z,7.61
2018-02-01T10:23:05.280Z,8.07
2018-02-01T10:24:05.282Z,8.12
2018-02-01T10:25:05.316Z,8.52
2018-02-01T10:26:05.842Z,8.94
2018-02-01T10:27:05.293Z,8.86
2018-02-01T10:28:05.303Z,9.32
2018-02-01T10:29:05.303Z,9.15
2018-02-01T10:30:05.312Z,9.08
2018-02-01T10:31:05.337Z,9.01
2018-02-01T10:32:05.307Z,9.38
2018-02-01T10:33:05.845Z,9.29
2018-02-01T10:34:05.324Z,9.51
2018-02-01T10:35:05.336Z,8.95
2018-02-01T10:36:05.317Z,8.37
2018-02-01T10:37:05.374Z,8.00
2018-02-01T10:38:05.323Z,7.92
2018-02-01T10:39:05.439Z,7.55
2018-02-01T10:40:05.338Z,7.37
2018-02-01T10:41:05.329Z,7.31
2018-02-01T10:42:05.334Z,7.34
2018-02-01T10:43:05.374Z,7.24
2018-02-01T10:44:05.369Z,7.06
2018-02-01T10:45:05.935Z,7.02
2018-02-01T10:46:05.355Z,6.85
2018-02-01T10:47:05.392Z,6.76
2018-02-01T10:48:05.391Z,6.69
2018-02-01T10:49:05.357Z,6.40
2018-02-01T10:50:05.390Z,6.12
2018-02-01T10:51:05.371Z,6.21
2018-02-01T10:52:05.454Z,6.40
2018-02-01T10:53:05.391Z,6.59
2018-02-01T10:54:05.391Z,6.37
2018-02-01T10:55:05.402Z,6.37
2018-02-01T10:56:05.370Z,6.43
2018-02-01T10:57:05.376Z,6.25
2018-02-01T10:58:05.409Z,6.22
2018-02-01T10:59:05.403Z,6.11
2018-02-01T11:00:05.485Z,6.08
2018-02-01T11:01:05.387Z,6.08
2018-02-01T11:02:06.356Z,5.99
2018-02-01T11:03:05.413Z,6.04
2018-02-01T11:04:05.384Z,6.06
2018-02-01T11:06:52.030Z,5.86
2018-02-01T15:52:14.166Z,4.84
2018-02-01T15:53:14.024Z,4.84
2018-02-01T15:54:13.858Z,4.75
2018-02-01T15:55:13.877Z,4.75
2018-02-01T15:56:13.890Z,4.78
2018-02-01T15:57:13.973Z,4.78
2018-02-01T15:58:13.853Z,4.72
2018-02-01T15:59:13.868Z,4.86
2018-02-01T16:00:13.870Z,4.73
2018-02-01T16:01:13.856Z,4.82
2018-02-01T16:02:13.875Z,4.77
2018-02-01T16:03:13.854Z,4.80
2018-02-01T16:04:13.855Z,4.86
2018-02-01T16:05:13.856Z,4.73
2018-02-01T16:06:13.850Z,4.84
2018-02-01T16:07:13.850Z,4.78
2018-02-01T16:08:13.843Z,4.77
2018-02-01T16:09:13.859Z,4.78
2018-02-01T16:10:13.943Z,4.88
2018-02-01T16:11:13.843Z,4.85
2018-02-01T16:12:13.850Z,4.92
2018-02-01T16:13:13.851Z,4.80
2018-02-01T16:14:13.841Z,4.89
2018-02-01T16:15:13.851Z,4.84
2018-02-01T16:16:13.847Z,4.85
2018-02-01T16:17:13.923Z,4.92
2018-02-01T16:18:13.874Z,4.92
2018-02-01T16:19:13.835Z,4.85
2018-02-01T16:20:14.505Z,4.78
2018-02-01T16:21:13.843Z,4.85
2018-02-01T16:22:13.850Z,4.70
2018-02-01T16:23:13.932Z,4.85
2018-02-01T16:24:13.992Z,4.84
2018-02-01T16:25:13.844Z,4.73
2018-02-01T16:26:13.887Z,4.82
2018-02-01T16:27:13.835Z,4.82
2018-02-01T16:28:13.878Z,4.88
2018-02-01T16:29:13.854Z,4.91
2018-02-01T16:30:13.888Z,4.96
2018-02-01T16:31:13.827Z,4.99
2018-02-01T16:32:13.827Z,4.85
2018-02-01T16:33:13.826Z,4.78
2018-02-01T16:34:13.821Z,4.62
2018-02-01T16:35:13.819Z,4.54
2018-02-01T16:36:13.859Z,4.66
2018-02-01T16:37:13.834Z,4.70
2018-02-01T16:38:13.851Z,4.70
2018-02-01T16:39:13.827Z,4.67
2018-02-01T16:40:13.839Z,4.73
2018-02-01T16:41:13.819Z,4.73
2018-02-01T16:42:13.839Z,4.82
2018-02-01T16:43:13.847Z,4.84
2018-02-01T16:44:13.830Z,4.94
2018-02-01T16:45:13.849Z,4.94
2018-02-01T16:46:13.849Z,4.94
2018-02-01T16:47:13.805Z,4.94
2018-02-01T16:48:13.875Z,4.94
2018-02-01T16:49:13.862Z,4.92
2018-02-01T16:50:13.848Z,4.80
2018-02-01T16:51:13.876Z,4.89
2018-02-01T16:52:13.810Z,4.89
2018-02-01T16:53:13.798Z,4.82
2018-02-01T16:54:13.890Z,4.91
2018-02-01T16:55:13.836Z,4.88
2018-02-01T16:56:13.849Z,4.67
2018-02-01T16:57:13.810Z,4.77
2018-02-01T16:58:13.798Z,4.62
2018-02-01T16:59:13.802Z,4.59
2018-02-01T17:00:13.792Z,4.67
2018-02-01T17:01:13.816Z,4.66
2018-02-01T17:02:13.906Z,4.72
2018-02-01T17:03:13.804Z,4.70
2018-02-01T17:04:13.818Z,4.72
2018-02-01T17:05:13.798Z,4.65
2018-02-01T17:06:13.806Z,4.63
2018-02-01T17:07:13.803Z,4.59
2018-02-01T17:08:13.807Z,4.59
2018-02-01T17:09:13.791Z,4.47
2018-02-01T17:10:13.843Z,4.47
2018-02-01T17:11:13.785Z,4.48
2018-02-01T17:12:13.782Z,4.47
2018-02-01T17:13:13.795Z,4.52
2018-02-01T17:14:13.786Z,4.60
2018-02-01T17:15:13.785Z,4.50
2018-02-01T17:16:13.857Z,4.50
2018-02-01T17:17:13.797Z,4.59
2018-02-01T17:18:13.779Z,4.50
2018-02-01T17:19:13.785Z,4.41
2018-02-01T17:20:13.799Z,4.45
2018-02-01T17:21:13.776Z,4.48
2018-02-01T17:22:13.831Z,4.52
2018-02-01T17:23:13.781Z,4.52
2018-02-01T17:24:13.778Z,4.52
2018-02-01T17:25:13.787Z,4.58
2018-02-01T17:26:13.811Z,4.62
2018-02-01T17:27:13.756Z,4.55
2018-02-01T17:28:14.021Z,4.58
2018-02-01T17:29:13.878Z,4.54
2018-02-01T17:30:13.866Z,4.60
2018-02-01T17:31:13.802Z,4.60
2018-02-01T17:32:14.367Z,4.60
2018-02-01T17:33:14.359Z,4.60
2018-02-01T17:34:13.753Z,4.52
2018-02-01T17:35:13.808Z,4.73
2018-02-01T17:36:13.766Z,4.73
2018-02-01T17:37:13.830Z,4.73
2018-02-01T17:38:13.749Z,4.67
2018-02-01T17:39:14.043Z,4.58
2018-02-01T17:40:13.883Z,4.52
2018-02-01T17:41:13.953Z,4.52
2018-02-01T17:42:13.836Z,4.44
2018-02-01T17:43:13.932Z,4.37
2018-02-01T17:44:13.756Z,4.32
2018-02-01T17:45:13.779Z,4.37
2018-02-01T17:46:13.744Z,4.34
2018-02-01T17:47:13.750Z,4.24
2018-02-01T17:48:13.748Z,4.23
2018-02-01T17:49:13.743Z,4.24
2018-02-01T17:50:13.746Z,4.26
2018-02-01T17:51:13.845Z,4.26
2018-02-01T17:52:13.779Z,4.26
2018-02-01T17:53:13.873Z,4.12
2018-02-01T17:54:13.805Z,4.11
2018-02-01T17:55:13.743Z,4.06
2018-02-01T17:56:13.754Z,4.06
2018-02-01T17:57:13.731Z,4.05
2018-02-01T17:58:13.740Z,4.05
2018-02-01T17:59:13.800Z,4.06
2018-02-01T18:00:13.766Z,4.05
2018-02-01T18:01:13.724Z,4.02
2018-02-01T18:02:13.731Z,3.98